sensor_id;sensor_type;location;lat;lon;timestamp;P1;durP1;ratioP1;P2;durP2;ratioP2
11230;SDS011;5672;51.060;3.734;2022-11-15T00:00:56;20.27;;;16.97;;
11230;SDS011;5672;51.060;3.734;2022-11-15T00:03:23;24.30;;;15.90;;
11230;SDS011;5672;51.060;3.734;2022-11-15T00:05:50;19.13;;;16.10;;
11230;SDS011;5672;51.060;3.734;2022-11-15T00:08:16;20.23;;;16.27;;
11230;SDS011;5672;51.060;3.734;2022-11-15T00:10:42;19.80;;;15.23;;
11230;SDS011;5672;51.060;3.734;2022-11-15T00:13:09;18.67;;;15.67;;
11230;SDS011;5672;51.060;3.734;2022-11-15T00:15:39;21.80;;;15.47;;
11230;SDS011;5672;51.060;3.734;2022-11-15T00:18:05;22.13;;;15.73;;
11230;SDS011;5672;51.060;3.734;2022-11-15T00:20:33;18.43;;;15.33;;
11230;SDS011;5672;51.060;3.734;2022-11-15T00:22:59;19.50;;;15.13;;
11230;SDS011;5672;51.060;3.734;2022-11-15T00:25:25;19.03;;;14.93;;
11230;SDS011;5672;51.060;3.734;2022-11-15T00:27:54;17.43;;;14.60;;
11230;SDS011;5672;51.060;3.734;2022-11-15T00:30:20;18.43;;;15.00;;
11230;SDS011;5672;51.060;3.734;2022-11-15T00:32:46;19.93;;;13.70;;
11230;SDS011;5672;51.060;3.734;2022-11-15T00:35:12;17.23;;;13.17;;
11230;SDS011;5672;51.060;3.734;2022-11-15T00:37:38;15.57;;;13.10;;
11230;SDS011;5672;51.060;3.734;2022-11-15T00:40:05;16.97;;;13.03;;
11230;SDS011;5672;51.060;3.734;2022-11-15T00:42:31;14.40;;;12.90;;
11230;SDS011;5672;51.060;3.734;2022-11-15T00:44:57;16.17;;;14.47;;
11230;SDS011;5672;51.060;3.734;2022-11-15T00:47:23;16.07;;;13.53;;
11230;SDS011;5672;51.060;3.734;2022-11-15T00:49:49;16.30;;;13.63;;
11230;SDS011;5672;51.060;3.734;2022-11-15T00:52:15;15.20;;;13.13;;
11230;SDS011;5672;51.060;3.734;2022-11-15T00:54:40;17.37;;;13.43;;
11230;SDS011;5672;51.060;3.734;2022-11-15T00:57:06;16.30;;;13.53;;
11230;SDS011;5672;51.060;3.734;2022-11-15T00:59:32;20.67;;;14.37;;
11230;SDS011;5672;51.060;3.734;2022-11-15T01:01:58;19.57;;;13.17;;
11230;SDS011;5672;51.060;3.734;2022-11-15T01:04:24;15.13;;;12.70;;
11230;SDS011;5672;51.060;3.734;2022-11-15T01:06:50;13.90;;;12.50;;
11230;SDS011;5672;51.060;3.734;2022-11-15T01:09:16;19.07;;;12.43;;
11230;SDS011;5672;51.060;3.734;2022-11-15T01:11:42;16.77;;;13.20;;
11230;SDS011;5672;51.060;3.734;2022-11-15T01:14:08;16.87;;;12.77;;
11230;SDS011;5672;51.060;3.734;2022-11-15T01:16:34;15.13;;;13.20;;
11230;SDS011;5672;51.060;3.734;2022-11-15T01:19:00;17.73;;;13.07;;
11230;SDS011;5672;51.060;3.734;2022-11-15T01:21:26;14.77;;;13.03;;
11230;SDS011;5672;51.060;3.734;2022-11-15T01:23:53;14.03;;;12.63;;
11230;SDS011;5672;51.060;3.734;2022-11-15T01:26:20;16.47;;;13.17;;
11230;SDS011;5672;51.060;3.734;2022-11-15T01:28:45;20.47;;;14.37;;
11230;SDS011;5672;51.060;3.734;2022-11-15T01:31:13;17.07;;;14.10;;
11230;SDS011;5672;51.060;3.734;2022-11-15T01:33:39;15.27;;;13.43;;
11230;SDS011;5672;51.060;3.734;2022-11-15T01:36:06;17.53;;;13.10;;
11230;SDS011;5672;51.060;3.734;2022-11-15T01:38:32;14.17;;;12.40;;
11230;SDS011;5672;51.060;3.734;2022-11-15T01:40:58;15.87;;;12.00;;
11230;SDS011;5672;51.060;3.734;2022-11-15T01:43:28;17.03;;;12.97;;
11230;SDS011;5672;51.060;3.734;2022-11-15T01:46:01;17.70;;;12.40;;
11230;SDS011;5672;51.060;3.734;2022-11-15T01:48:30;18.13;;;12.20;;
11230;SDS011;5672;51.060;3.734;2022-11-15T01:50:57;16.50;;;12.37;;
11230;SDS011;5672;51.060;3.734;2022-11-15T01:53:24;15.90;;;12.17;;
11230;SDS011;5672;51.060;3.734;2022-11-15T01:55:51;15.37;;;11.30;;
11230;SDS011;5672;51.060;3.734;2022-11-15T01:58:17;13.90;;;11.23;;
11230;SDS011;5672;51.060;3.734;2022-11-15T02:00:43;14.90;;;11.60;;
11230;SDS011;5672;51.060;3.734;2022-11-15T02:03:09;14.97;;;11.47;;
11230;SDS011;5672;51.060;3.734;2022-11-15T02:05:35;20.47;;;11.23;;
11230;SDS011;5672;51.060;3.734;2022-11-15T02:08:02;16.70;;;10.53;;
11230;SDS011;5672;51.060;3.734;2022-11-15T02:10:28;16.27;;;11.40;;
11230;SDS011;5672;51.060;3.734;2022-11-15T02:12:54;14.90;;;10.57;;
11230;SDS011;5672;51.060;3.734;2022-11-15T02:15:21;14.93;;;10.37;;
11230;SDS011;5672;51.060;3.734;2022-11-15T02:17:55;16.50;;;9.93;;
11230;SDS011;5672;51.060;3.734;2022-11-15T02:26:10;11.77;;;9.27;;
11230;SDS011;5672;51.060;3.734;2022-11-15T02:30:47;15.40;;;9.03;;
11230;SDS011;5672;51.060;3.734;2022-11-15T02:33:26;11.63;;;8.40;;
11230;SDS011;5672;51.060;3.734;2022-11-15T02:36:00;10.23;;;8.63;;
11230;SDS011;5672;51.060;3.734;2022-11-15T02:38:46;11.87;;;8.63;;
11230;SDS011;5672;51.060;3.734;2022-11-15T02:41:13;12.57;;;8.50;;
11230;SDS011;5672;51.060;3.734;2022-11-15T02:43:45;9.80;;;8.10;;
11230;SDS011;5672;51.060;3.734;2022-11-15T02:46:29;12.23;;;8.30;;
11230;SDS011;5672;51.060;3.734;2022-11-15T02:49:15;15.40;;;8.03;;
11230;SDS011;5672;51.060;3.734;2022-11-15T02:51:42;9.17;;;7.47;;
11230;SDS011;5672;51.060;3.734;2022-11-15T02:54:11;13.83;;;7.80;;
11230;SDS011;5672;51.060;3.734;2022-11-15T02:56:38;14.97;;;7.67;;
11230;SDS011;5672;51.060;3.734;2022-11-15T03:01:46;10.03;;;7.30;;
11230;SDS011;5672;51.060;3.734;2022-11-15T03:04:36;12.20;;;7.00;;
11230;SDS011;5672;51.060;3.734;2022-11-15T03:09:51;9.80;;;6.80;;
11230;SDS011;5672;51.060;3.734;2022-11-15T03:12:23;8.93;;;6.40;;
11230;SDS011;5672;51.060;3.734;2022-11-15T03:15:00;13.83;;;6.67;;
11230;SDS011;5672;51.060;3.734;2022-11-15T03:17:28;8.37;;;6.43;;
11230;SDS011;5672;51.060;3.734;2022-11-15T03:19:58;6.50;;;5.73;;
11230;SDS011;5672;51.060;3.734;2022-11-15T03:22:25;8.93;;;6.63;;
11230;SDS011;5672;51.060;3.734;2022-11-15T03:24:54;10.10;;;6.13;;
11230;SDS011;5672;51.060;3.734;2022-11-15T03:27:23;7.27;;;6.27;;
11230;SDS011;5672;51.060;3.734;2022-11-15T03:29:51;6.23;;;5.63;;
11230;SDS011;5672;51.060;3.734;2022-11-15T03:32:19;9.23;;;5.70;;
11230;SDS011;5672;51.060;3.734;2022-11-15T03:34:47;8.13;;;5.53;;
11230;SDS011;5672;51.060;3.734;2022-11-15T03:37:15;9.57;;;5.80;;
11230;SDS011;5672;51.060;3.734;2022-11-15T03:39:42;8.37;;;5.50;;
11230;SDS011;5672;51.060;3.734;2022-11-15T03:42:28;9.73;;;5.60;;
11230;SDS011;5672;51.060;3.734;2022-11-15T03:45:03;5.67;;;5.10;;
11230;SDS011;5672;51.060;3.734;2022-11-15T03:47:50;6.03;;;5.47;;
11230;SDS011;5672;51.060;3.734;2022-11-15T03:50:18;8.67;;;5.20;;
11230;SDS011;5672;51.060;3.734;2022-11-15T03:52:45;9.63;;;5.33;;
11230;SDS011;5672;51.060;3.734;2022-11-15T03:55:13;8.23;;;5.50;;
11230;SDS011;5672;51.060;3.734;2022-11-15T03:57:40;8.20;;;4.90;;
11230;SDS011;5672;51.060;3.734;2022-11-15T04:00:06;7.30;;;5.37;;
11230;SDS011;5672;51.060;3.734;2022-11-15T04:02:33;9.03;;;4.87;;
11230;SDS011;5672;51.060;3.734;2022-11-15T04:04:59;9.20;;;5.47;;
11230;SDS011;5672;51.060;3.734;2022-11-15T04:07:24;10.43;;;6.67;;
11230;SDS011;5672;51.060;3.734;2022-11-15T04:09:50;9.23;;;6.97;;
11230;SDS011;5672;51.060;3.734;2022-11-15T04:12:30;10.23;;;6.10;;
11230;SDS011;5672;51.060;3.734;2022-11-15T04:15:07;9.70;;;6.20;;
11230;SDS011;5672;51.060;3.734;2022-11-15T04:20:13;14.47;;;6.60;;
11230;SDS011;5672;51.060;3.734;2022-11-15T04:22:58;9.83;;;6.30;;
11230;SDS011;5672;51.060;3.734;2022-11-15T04:25:43;10.87;;;5.90;;
11230;SDS011;5672;51.060;3.734;2022-11-15T04:28:10;10.67;;;6.07;;
11230;SDS011;5672;51.060;3.734;2022-11-15T04:30:36;9.37;;;5.57;;
11230;SDS011;5672;51.060;3.734;2022-11-15T04:33:02;14.67;;;8.40;;
11230;SDS011;5672;51.060;3.734;2022-11-15T04:35:28;10.27;;;7.43;;
11230;SDS011;5672;51.060;3.734;2022-11-15T04:37:55;11.03;;;7.50;;
11230;SDS011;5672;51.060;3.734;2022-11-15T04:40:21;13.60;;;8.47;;
11230;SDS011;5672;51.060;3.734;2022-11-15T04:42:47;18.67;;;8.70;;
11230;SDS011;5672;51.060;3.734;2022-11-15T04:45:13;17.73;;;8.47;;
11230;SDS011;5672;51.060;3.734;2022-11-15T04:47:40;16.57;;;8.40;;
11230;SDS011;5672;51.060;3.734;2022-11-15T04:50:06;15.60;;;8.50;;
11230;SDS011;5672;51.060;3.734;2022-11-15T04:52:32;15.60;;;8.93;;
11230;SDS011;5672;51.060;3.734;2022-11-15T04:54:58;11.33;;;6.93;;
11230;SDS011;5672;51.060;3.734;2022-11-15T04:57:24;12.43;;;5.83;;
11230;SDS011;5672;51.060;3.734;2022-11-15T04:59:50;9.73;;;6.10;;
11230;SDS011;5672;51.060;3.734;2022-11-15T05:02:16;14.10;;;7.37;;
11230;SDS011;5672;51.060;3.734;2022-11-15T05:04:41;12.03;;;6.83;;
11230;SDS011;5672;51.060;3.734;2022-11-15T05:07:07;15.87;;;7.30;;
11230;SDS011;5672;51.060;3.734;2022-11-15T05:09:33;17.07;;;8.23;;
11230;SDS011;5672;51.060;3.734;2022-11-15T05:11:59;14.10;;;8.40;;
11230;SDS011;5672;51.060;3.734;2022-11-15T05:14:25;14.27;;;7.57;;
11230;SDS011;5672;51.060;3.734;2022-11-15T05:16:51;14.57;;;7.00;;
11230;SDS011;5672;51.060;3.734;2022-11-15T05:19:17;12.67;;;6.97;;
11230;SDS011;5672;51.060;3.734;2022-11-15T05:21:43;14.20;;;7.43;;
11230;SDS011;5672;51.060;3.734;2022-11-15T05:24:10;16.40;;;8.03;;
11230;SDS011;5672;51.060;3.734;2022-11-15T05:26:36;12.37;;;8.10;;
11230;SDS011;5672;51.060;3.734;2022-11-15T05:29:02;16.03;;;8.33;;
11230;SDS011;5672;51.060;3.734;2022-11-15T05:31:28;12.87;;;7.47;;
11230;SDS011;5672;51.060;3.734;2022-11-15T05:33:55;17.20;;;7.90;;
11230;SDS011;5672;51.060;3.734;2022-11-15T05:38:59;16.27;;;7.50;;
11230;SDS011;5672;51.060;3.734;2022-11-15T05:41:30;14.17;;;8.13;;
11230;SDS011;5672;51.060;3.734;2022-11-15T05:43:57;11.90;;;7.90;;
11230;SDS011;5672;51.060;3.734;2022-11-15T05:46:23;13.87;;;7.07;;
11230;SDS011;5672;51.060;3.734;2022-11-15T05:48:50;14.80;;;7.23;;
11230;SDS011;5672;51.060;3.734;2022-11-15T05:51:17;11.87;;;7.17;;
11230;SDS011;5672;51.060;3.734;2022-11-15T05:53:44;13.03;;;6.83;;
11230;SDS011;5672;51.060;3.734;2022-11-15T05:56:11;13.87;;;7.37;;
11230;SDS011;5672;51.060;3.734;2022-11-15T05:58:37;11.93;;;6.30;;
11230;SDS011;5672;51.060;3.734;2022-11-15T06:01:03;13.17;;;6.90;;
11230;SDS011;5672;51.060;3.734;2022-11-15T06:03:29;9.53;;;5.27;;
11230;SDS011;5672;51.060;3.734;2022-11-15T06:05:56;9.20;;;4.80;;
11230;SDS011;5672;51.060;3.734;2022-11-15T06:08:22;9.93;;;5.27;;
11230;SDS011;5672;51.060;3.734;2022-11-15T06:10:48;9.13;;;5.23;;
11230;SDS011;5672;51.060;3.734;2022-11-15T06:13:13;10.07;;;5.23;;
11230;SDS011;5672;51.060;3.734;2022-11-15T06:15:39;10.10;;;5.40;;
11230;SDS011;5672;51.060;3.734;2022-11-15T06:18:05;11.03;;;5.03;;
11230;SDS011;5672;51.060;3.734;2022-11-15T06:20:34;7.37;;;5.00;;
11230;SDS011;5672;51.060;3.734;2022-11-15T06:23:01;10.30;;;4.80;;
11230;SDS011;5672;51.060;3.734;2022-11-15T06:25:27;5.13;;;4.30;;
11230;SDS011;5672;51.060;3.734;2022-11-15T06:27:54;8.40;;;4.47;;
11230;SDS011;5672;51.060;3.734;2022-11-15T06:30:20;4.30;;;3.90;;
11230;SDS011;5672;51.060;3.734;2022-11-15T06:32:46;5.17;;;3.67;;
11230;SDS011;5672;51.060;3.734;2022-11-15T06:35:12;6.53;;;4.03;;
11230;SDS011;5672;51.060;3.734;2022-11-15T06:37:39;10.93;;;4.40;;
11230;SDS011;5672;51.060;3.734;2022-11-15T06:40:05;6.50;;;4.23;;
11230;SDS011;5672;51.060;3.734;2022-11-15T06:42:31;9.10;;;4.80;;
11230;SDS011;5672;51.060;3.734;2022-11-15T06:44:57;7.93;;;5.03;;
11230;SDS011;5672;51.060;3.734;2022-11-15T06:47:23;7.37;;;4.77;;
11230;SDS011;5672;51.060;3.734;2022-11-15T06:49:49;7.67;;;5.13;;
11230;SDS011;5672;51.060;3.734;2022-11-15T06:52:15;6.97;;;5.33;;
11230;SDS011;5672;51.060;3.734;2022-11-15T06:54:43;9.60;;;5.10;;
11230;SDS011;5672;51.060;3.734;2022-11-15T06:57:09;6.10;;;4.60;;
11230;SDS011;5672;51.060;3.734;2022-11-15T06:59:35;6.17;;;4.67;;
11230;SDS011;5672;51.060;3.734;2022-11-15T07:02:01;5.77;;;4.67;;
11230;SDS011;5672;51.060;3.734;2022-11-15T07:04:27;7.87;;;4.73;;
11230;SDS011;5672;51.060;3.734;2022-11-15T07:06:53;7.83;;;5.03;;
11230;SDS011;5672;51.060;3.734;2022-11-15T07:09:19;6.13;;;5.05;;
11230;SDS011;5672;51.060;3.734;2022-11-15T07:11:45;6.57;;;4.73;;
11230;SDS011;5672;51.060;3.734;2022-11-15T07:14:11;5.50;;;5.00;;
11230;SDS011;5672;51.060;3.734;2022-11-15T07:16:37;4.50;;;4.10;;
11230;SDS011;5672;51.060;3.734;2022-11-15T07:19:06;5.80;;;3.97;;
11230;SDS011;5672;51.060;3.734;2022-11-15T07:21:34;4.27;;;3.90;;
11230;SDS011;5672;51.060;3.734;2022-11-15T07:24:05;4.70;;;4.20;;
11230;SDS011;5672;51.060;3.734;2022-11-15T07:26:31;4.27;;;3.87;;
11230;SDS011;5672;51.060;3.734;2022-11-15T07:28:57;5.63;;;4.07;;
11230;SDS011;5672;51.060;3.734;2022-11-15T07:31:23;5.73;;;4.23;;
11230;SDS011;5672;51.060;3.734;2022-11-15T07:33:52;5.63;;;4.10;;
11230;SDS011;5672;51.060;3.734;2022-11-15T07:36:18;5.00;;;4.50;;
11230;SDS011;5672;51.060;3.734;2022-11-15T07:38:45;4.83;;;4.10;;
11230;SDS011;5672;51.060;3.734;2022-11-15T07:41:11;6.57;;;4.67;;
11230;SDS011;5672;51.060;3.734;2022-11-15T07:43:37;5.27;;;4.40;;
11230;SDS011;5672;51.060;3.734;2022-11-15T07:46:06;4.90;;;4.40;;
11230;SDS011;5672;51.060;3.734;2022-11-15T07:48:34;8.63;;;4.57;;
11230;SDS011;5672;51.060;3.734;2022-11-15T07:51:00;5.43;;;4.20;;
11230;SDS011;5672;51.060;3.734;2022-11-15T07:53:26;8.63;;;4.63;;
11230;SDS011;5672;51.060;3.734;2022-11-15T07:55:52;8.80;;;4.77;;
11230;SDS011;5672;51.060;3.734;2022-11-15T07:58:18;6.60;;;4.80;;
11230;SDS011;5672;51.060;3.734;2022-11-15T08:00:45;5.83;;;5.03;;
11230;SDS011;5672;51.060;3.734;2022-11-15T08:03:11;8.80;;;5.20;;
11230;SDS011;5672;51.060;3.734;2022-11-15T08:05:38;9.63;;;5.07;;
11230;SDS011;5672;51.060;3.734;2022-11-15T08:08:05;6.63;;;4.67;;
11230;SDS011;5672;51.060;3.734;2022-11-15T08:10:31;6.67;;;4.67;;
11230;SDS011;5672;51.060;3.734;2022-11-15T08:12:58;7.83;;;4.97;;
11230;SDS011;5672;51.060;3.734;2022-11-15T08:15:24;9.40;;;5.20;;
11230;SDS011;5672;51.060;3.734;2022-11-15T08:18:00;9.33;;;4.90;;
11230;SDS011;5672;51.060;3.734;2022-11-15T08:20:27;9.80;;;4.73;;
11230;SDS011;5672;51.060;3.734;2022-11-15T08:22:56;10.00;;;4.73;;
11230;SDS011;5672;51.060;3.734;2022-11-15T08:25:23;8.53;;;4.90;;
11230;SDS011;5672;51.060;3.734;2022-11-15T08:27:52;9.13;;;5.60;;
11230;SDS011;5672;51.060;3.734;2022-11-15T08:30:18;8.67;;;4.80;;
11230;SDS011;5672;51.060;3.734;2022-11-15T08:32:44;12.17;;;5.03;;
11230;SDS011;5672;51.060;3.734;2022-11-15T08:35:10;10.80;;;4.90;;
11230;SDS011;5672;51.060;3.734;2022-11-15T08:37:36;6.70;;;4.17;;
11230;SDS011;5672;51.060;3.734;2022-11-15T08:40:05;7.00;;;4.47;;
11230;SDS011;5672;51.060;3.734;2022-11-15T08:42:31;8.30;;;4.83;;
11230;SDS011;5672;51.060;3.734;2022-11-15T08:44:57;5.07;;;3.77;;
11230;SDS011;5672;51.060;3.734;2022-11-15T08:47:23;10.03;;;4.47;;
11230;SDS011;5672;51.060;3.734;2022-11-15T08:49:49;6.13;;;4.87;;
11230;SDS011;5672;51.060;3.734;2022-11-15T08:52:15;8.83;;;4.97;;
11230;SDS011;5672;51.060;3.734;2022-11-15T08:54:41;8.33;;;4.80;;
11230;SDS011;5672;51.060;3.734;2022-11-15T08:57:07;14.73;;;4.90;;
11230;SDS011;5672;51.060;3.734;2022-11-15T08:59:34;12.13;;;5.87;;
11230;SDS011;5672;51.060;3.734;2022-11-15T09:02:00;14.07;;;7.23;;
11230;SDS011;5672;51.060;3.734;2022-11-15T09:04:26;8.80;;;5.80;;
11230;SDS011;5672;51.060;3.734;2022-11-15T09:06:52;6.63;;;4.60;;
11230;SDS011;5672;51.060;3.734;2022-11-15T09:09:18;10.53;;;5.27;;
11230;SDS011;5672;51.060;3.734;2022-11-15T09:11:44;8.63;;;4.70;;
11230;SDS011;5672;51.060;3.734;2022-11-15T09:14:14;8.53;;;4.53;;
11230;SDS011;5672;51.060;3.734;2022-11-15T09:16:40;9.17;;;4.17;;
11230;SDS011;5672;51.060;3.734;2022-11-15T09:19:06;6.57;;;3.93;;
11230;SDS011;5672;51.060;3.734;2022-11-15T09:21:32;12.97;;;4.83;;
11230;SDS011;5672;51.060;3.734;2022-11-15T09:23:58;12.60;;;4.47;;
11230;SDS011;5672;51.060;3.734;2022-11-15T09:26:24;6.97;;;3.10;;
11230;SDS011;5672;51.060;3.734;2022-11-15T09:28:50;5.97;;;3.23;;
11230;SDS011;5672;51.060;3.734;2022-11-15T09:31:16;14.53;;;6.30;;
11230;SDS011;5672;51.060;3.734;2022-11-15T09:33:43;9.90;;;4.67;;
11230;SDS011;5672;51.060;3.734;2022-11-15T09:36:10;7.57;;;3.20;;
11230;SDS011;5672;51.060;3.734;2022-11-15T09:38:36;10.03;;;3.13;;
11230;SDS011;5672;51.060;3.734;2022-11-15T09:46:17;10.37;;;4.07;;
11230;SDS011;5672;51.060;3.734;2022-11-15T09:48:50;7.90;;;3.50;;
11230;SDS011;5672;51.060;3.734;2022-11-15T09:53:52;83.17;;;34.17;;
11230;SDS011;5672;51.060;3.734;2022-11-15T09:56:20;107.70;;;40.87;;
11230;SDS011;5672;51.060;3.734;2022-11-15T10:01:18;24.30;;;11.17;;
11230;SDS011;5672;51.060;3.734;2022-11-15T10:03:45;358.67;;;150.13;;
11230;SDS011;5672;51.060;3.734;2022-11-15T10:06:19;147.83;;;56.90;;
11230;SDS011;5672;51.060;3.734;2022-11-15T10:08:53;50.70;;;20.83;;
11230;SDS011;5672;51.060;3.734;2022-11-15T10:11:22;42.83;;;20.23;;
11230;SDS011;5672;51.060;3.734;2022-11-15T10:13:49;34.63;;;14.37;;
11230;SDS011;5672;51.060;3.734;2022-11-15T10:16:26;21.10;;;11.30;;
11230;SDS011;5672;51.060;3.734;2022-11-15T10:19:44;15.57;;;6.90;;
11230;SDS011;5672;51.060;3.734;2022-11-15T10:24:25;19.67;;;8.97;;
11230;SDS011;5672;51.060;3.734;2022-11-15T10:26:53;12.27;;;4.97;;
11230;SDS011;5672;51.060;3.734;2022-11-15T10:29:19;14.70;;;6.97;;
11230;SDS011;5672;51.060;3.734;2022-11-15T10:31:46;14.30;;;5.00;;
11230;SDS011;5672;51.060;3.734;2022-11-15T10:34:19;16.03;;;7.00;;
11230;SDS011;5672;51.060;3.734;2022-11-15T10:37:06;10.00;;;4.80;;
11230;SDS011;5672;51.060;3.734;2022-11-15T10:39:32;15.27;;;6.57;;
11230;SDS011;5672;51.060;3.734;2022-11-15T10:42:00;9.20;;;5.93;;
11230;SDS011;5672;51.060;3.734;2022-11-15T10:44:46;14.50;;;7.43;;
11230;SDS011;5672;51.060;3.734;2022-11-15T10:47:20;17.27;;;8.20;;
11230;SDS011;5672;51.060;3.734;2022-11-15T10:49:57;22.13;;;7.87;;
11230;SDS011;5672;51.060;3.734;2022-11-15T10:52:26;13.20;;;5.70;;
11230;SDS011;5672;51.060;3.734;2022-11-15T10:54:54;11.10;;;3.60;;
11230;SDS011;5672;51.060;3.734;2022-11-15T10:57:25;9.90;;;3.97;;
11230;SDS011;5672;51.060;3.734;2022-11-15T10:59:53;9.23;;;4.10;;
11230;SDS011;5672;51.060;3.734;2022-11-15T11:04:55;7.17;;;3.30;;
11230;SDS011;5672;51.060;3.734;2022-11-15T11:07:25;6.60;;;3.63;;
11230;SDS011;5672;51.060;3.734;2022-11-15T11:09:58;10.27;;;3.83;;
11230;SDS011;5672;51.060;3.734;2022-11-15T11:12:28;11.50;;;5.53;;
11230;SDS011;5672;51.060;3.734;2022-11-15T11:14:56;9.37;;;3.93;;
11230;SDS011;5672;51.060;3.734;2022-11-15T11:17:24;7.33;;;4.83;;
11230;SDS011;5672;51.060;3.734;2022-11-15T11:33:04;19.83;;;11.33;;
11230;SDS011;5672;51.060;3.734;2022-11-15T11:35:38;13.70;;;5.40;;
11230;SDS011;5672;51.060;3.734;2022-11-15T11:38:24;12.27;;;6.10;;
11230;SDS011;5672;51.060;3.734;2022-11-15T11:41:04;7.83;;;5.23;;
11230;SDS011;5672;51.060;3.734;2022-11-15T11:46:08;14.33;;;7.47;;
11230;SDS011;5672;51.060;3.734;2022-11-15T11:48:46;10.30;;;4.80;;
11230;SDS011;5672;51.060;3.734;2022-11-15T11:51:28;11.93;;;6.67;;
11230;SDS011;5672;51.060;3.734;2022-11-15T11:53:55;15.43;;;7.57;;
11230;SDS011;5672;51.060;3.734;2022-11-15T11:56:26;15.03;;;7.10;;
11230;SDS011;5672;51.060;3.734;2022-11-15T11:58:53;16.87;;;8.60;;
11230;SDS011;5672;51.060;3.734;2022-11-15T12:03:48;20.80;;;10.10;;
11230;SDS011;5672;51.060;3.734;2022-11-15T12:08:50;13.33;;;6.17;;
11230;SDS011;5672;51.060;3.734;2022-11-15T12:11:28;15.87;;;6.87;;
11230;SDS011;5672;51.060;3.734;2022-11-15T12:13:59;18.97;;;10.20;;
11230;SDS011;5672;51.060;3.734;2022-11-15T12:16:30;13.43;;;8.40;;
11230;SDS011;5672;51.060;3.734;2022-11-15T12:18:59;19.40;;;8.30;;
11230;SDS011;5672;51.060;3.734;2022-11-15T12:23:59;17.23;;;10.37;;
11230;SDS011;5672;51.060;3.734;2022-11-15T12:26:31;14.13;;;6.67;;
11230;SDS011;5672;51.060;3.734;2022-11-15T12:28:59;10.20;;;5.10;;
11230;SDS011;5672;51.060;3.734;2022-11-15T12:31:37;8.07;;;4.57;;
11230;SDS011;5672;51.060;3.734;2022-11-15T12:34:15;14.40;;;5.50;;
11230;SDS011;5672;51.060;3.734;2022-11-15T12:36:42;9.37;;;4.80;;
11230;SDS011;5672;51.060;3.734;2022-11-15T12:39:10;11.10;;;4.50;;
11230;SDS011;5672;51.060;3.734;2022-11-15T12:44:02;8.37;;;3.50;;
11230;SDS011;5672;51.060;3.734;2022-11-15T12:49:02;5.87;;;2.80;;
11230;SDS011;5672;51.060;3.734;2022-11-15T13:02:18;4.87;;;3.20;;
11230;SDS011;5672;51.060;3.734;2022-11-15T13:04:46;8.57;;;4.20;;
11230;SDS011;5672;51.060;3.734;2022-11-15T13:09:56;10.32;;;6.30;;
11230;SDS011;5672;51.060;3.734;2022-11-15T13:14:56;7.37;;;3.97;;
11230;SDS011;5672;51.060;3.734;2022-11-15T13:17:23;9.57;;;7.00;;
11230;SDS011;5672;51.060;3.734;2022-11-15T13:22:20;11.60;;;5.53;;
11230;SDS011;5672;51.060;3.734;2022-11-15T13:25:04;7.67;;;4.30;;
11230;SDS011;5672;51.060;3.734;2022-11-15T13:27:40;8.80;;;5.13;;
11230;SDS011;5672;51.060;3.734;2022-11-15T13:30:12;9.80;;;4.53;;
11230;SDS011;5672;51.060;3.734;2022-11-15T13:32:39;8.30;;;4.93;;
11230;SDS011;5672;51.060;3.734;2022-11-15T13:35:06;8.20;;;5.20;;
11230;SDS011;5672;51.060;3.734;2022-11-15T13:37:32;12.77;;;6.67;;
11230;SDS011;5672;51.060;3.734;2022-11-15T13:43:15;16.43;;;7.73;;
11230;SDS011;5672;51.060;3.734;2022-11-15T13:45:43;17.07;;;8.53;;
11230;SDS011;5672;51.060;3.734;2022-11-15T13:48:09;363.80;;;88.97;;
11230;SDS011;5672;51.060;3.734;2022-11-15T13:50:36;586.03;;;147.30;;
11230;SDS011;5672;51.060;3.734;2022-11-15T13:53:03;91.93;;;26.07;;
11230;SDS011;5672;51.060;3.734;2022-11-15T13:55:30;30.93;;;10.77;;
11230;SDS011;5672;51.060;3.734;2022-11-15T13:57:58;28.23;;;12.23;;
11230;SDS011;5672;51.060;3.734;2022-11-15T14:02:51;18.47;;;8.33;;
11230;SDS011;5672;51.060;3.734;2022-11-15T14:10:41;14.93;;;6.97;;
11230;SDS011;5672;51.060;3.734;2022-11-15T14:13:25;37.67;;;12.80;;
11230;SDS011;5672;51.060;3.734;2022-11-15T14:15:51;37.23;;;19.30;;
11230;SDS011;5672;51.060;3.734;2022-11-15T14:21:06;28.23;;;16.40;;
11230;SDS011;5672;51.060;3.734;2022-11-15T14:23:32;35.20;;;16.97;;
11230;SDS011;5672;51.060;3.734;2022-11-15T14:25:58;26.70;;;16.37;;
11230;SDS011;5672;51.060;3.734;2022-11-15T14:30:51;20.50;;;12.13;;
11230;SDS011;5672;51.060;3.734;2022-11-15T14:33:22;15.43;;;9.10;;
11230;SDS011;5672;51.060;3.734;2022-11-15T14:35:48;17.03;;;11.13;;
11230;SDS011;5672;51.060;3.734;2022-11-15T14:38:14;42.00;;;23.30;;
11230;SDS011;5672;51.060;3.734;2022-11-15T14:40:41;23.90;;;14.63;;
11230;SDS011;5672;51.060;3.734;2022-11-15T14:43:08;35.57;;;21.50;;
11230;SDS011;5672;51.060;3.734;2022-11-15T14:45:35;27.80;;;17.65;;
11230;SDS011;5672;51.060;3.734;2022-11-15T14:48:01;31.50;;;19.53;;
11230;SDS011;5672;51.060;3.734;2022-11-15T14:50:27;30.40;;;18.93;;
11230;SDS011;5672;51.060;3.734;2022-11-15T14:52:53;40.97;;;23.40;;
11230;SDS011;5672;51.060;3.734;2022-11-15T14:57:45;17.50;;;10.27;;
11230;SDS011;5672;51.060;3.734;2022-11-15T15:00:11;15.83;;;10.70;;
11230;SDS011;5672;51.060;3.734;2022-11-15T15:02:38;27.77;;;17.07;;
11230;SDS011;5672;51.060;3.734;2022-11-15T15:07:39;14.80;;;8.30;;
11230;SDS011;5672;51.060;3.734;2022-11-15T15:10:05;14.43;;;9.30;;
11230;SDS011;5672;51.060;3.734;2022-11-15T15:12:32;13.00;;;8.70;;
11230;SDS011;5672;51.060;3.734;2022-11-15T15:14:58;13.73;;;7.87;;
11230;SDS011;5672;51.060;3.734;2022-11-15T15:17:24;10.43;;;5.83;;
11230;SDS011;5672;51.060;3.734;2022-11-15T15:19:50;11.70;;;6.17;;
11230;SDS011;5672;51.060;3.734;2022-11-15T15:22:17;14.43;;;9.90;;
11230;SDS011;5672;51.060;3.734;2022-11-15T15:24:44;13.87;;;8.30;;
11230;SDS011;5672;51.060;3.734;2022-11-15T15:27:10;6.87;;;5.07;;
11230;SDS011;5672;51.060;3.734;2022-11-15T15:29:36;62.30;;;37.43;;
11230;SDS011;5672;51.060;3.734;2022-11-15T15:32:02;119.83;;;78.53;;
11230;SDS011;5672;51.060;3.734;2022-11-15T15:34:28;45.37;;;34.83;;
11230;SDS011;5672;51.060;3.734;2022-11-15T15:37:07;32.23;;;21.37;;
11230;SDS011;5672;51.060;3.734;2022-11-15T15:39:33;22.83;;;14.17;;
11230;SDS011;5672;51.060;3.734;2022-11-15T15:41:59;14.40;;;10.00;;
11230;SDS011;5672;51.060;3.734;2022-11-15T15:44:25;11.10;;;7.73;;
11230;SDS011;5672;51.060;3.734;2022-11-15T15:46:51;10.77;;;7.97;;
11230;SDS011;5672;51.060;3.734;2022-11-15T15:49:17;18.73;;;13.17;;
11230;SDS011;5672;51.060;3.734;2022-11-15T15:51:43;201.73;;;139.70;;
11230;SDS011;5672;51.060;3.734;2022-11-15T15:54:09;186.90;;;112.53;;
11230;SDS011;5672;51.060;3.734;2022-11-15T15:56:35;104.20;;;68.20;;
11230;SDS011;5672;51.060;3.734;2022-11-15T15:59:01;303.57;;;215.47;;
11230;SDS011;5672;51.060;3.734;2022-11-15T16:01:27;232.17;;;151.03;;
11230;SDS011;5672;51.060;3.734;2022-11-15T16:03:53;41.40;;;28.60;;
11230;SDS011;5672;51.060;3.734;2022-11-15T16:06:35;42.57;;;32.13;;
11230;SDS011;5672;51.060;3.734;2022-11-15T16:09:03;20.80;;;16.33;;
11230;SDS011;5672;51.060;3.734;2022-11-15T16:11:29;22.63;;;17.37;;
11230;SDS011;5672;51.060;3.734;2022-11-15T16:13:55;22.10;;;17.77;;
11230;SDS011;5672;51.060;3.734;2022-11-15T16:16:21;13.67;;;11.90;;
11230;SDS011;5672;51.060;3.734;2022-11-15T16:18:47;14.27;;;10.60;;
11230;SDS011;5672;51.060;3.734;2022-11-15T16:21:13;10.57;;;7.70;;
11230;SDS011;5672;51.060;3.734;2022-11-15T16:23:39;11.53;;;9.53;;
11230;SDS011;5672;51.060;3.734;2022-11-15T16:29:00;7.83;;;6.37;;
11230;SDS011;5672;51.060;3.734;2022-11-15T16:31:26;9.90;;;7.33;;
11230;SDS011;5672;51.060;3.734;2022-11-15T16:33:52;7.47;;;6.77;;
11230;SDS011;5672;51.060;3.734;2022-11-15T16:36:22;10.63;;;7.43;;
11230;SDS011;5672;51.060;3.734;2022-11-15T16:38:48;7.67;;;6.80;;